Time;durP1;ratioP1;P1;durP2;ratioP2;P2;SDS_P1;SDS_P2;PMS_P1;PMS_P2;Temp;Humidity;BMP_temperature;BMP_pressure;BME280_temperature;BME280_humidity;BME280_pressure;Samples;Min_cycle;Max_cycle;Signal;HPM_P1;HPM_P2
2022/01/31 00:00:34;;;;;;;;;;;20.40;42.40;;;;;;5122923;27;20333;-46
2022/01/31 00:03:02;;;;;;;;;;;20.40;42.40;;;;;;5127510;27;20238;-44
2022/01/31 00:05:29;;;;;;;;;;;20.40;42.40;;;;;;5102837;27;20390;-44
2022/01/31 00:07:56;;;;;;;;;;;20.40;42.40;;;;;;5114558;27;19923;-45
2022/01/31 00:10:28;;;;;;;;;;;20.40;42.40;;;;;;5106639;27;20010;-44
2022/01/31 00:13:00;;;;;;;;;;;20.40;42.40;;;;;;5127268;27;19919;-43
2022/01/31 00:15:28;;;;;;;;;;;20.40;42.30;;;;;;5127240;27;19923;-43
2022/01/31 00:17:57;;;;;;;;;;;20.40;42.30;;;;;;5089071;27;19947;-48
2022/01/31 00:20:23;;;;;;;;;;;20.40;42.30;;;;;;5102700;27;19934;-46
2022/01/31 00:22:50;;;;;;;;;;;20.40;42.30;;;;;;5105916;27;19979;-46
2022/01/31 00:25:17;;;;;;;;;;;20.40;42.30;;;;;;5107880;27;19941;-44
2022/01/31 00:27:44;;;;;;;;;;;20.40;42.30;;;;;;5126365;27;19930;-44
2022/01/31 00:30:12;;;;;;;;;;;20.40;42.30;;;;;;5109313;27;19920;-43
2022/01/31 00:32:38;;;;;;;;;;;20.40;42.30;;;;;;5088163;27;20361;-44
2022/01/31 00:35:07;;;;;;;;;;;20.40;42.20;;;;;;5129549;27;20170;-45
2022/01/31 00:37:34;;;;;;;;;;;20.40;42.20;;;;;;5125438;27;19931;-44
2022/01/31 00:40:01;;;;;;;;;;;20.40;42.20;;;;;;5108142;27;19926;-43
2022/01/31 00:42:30;;;;;;;;;;;20.40;42.20;;;;;;5101686;28;20103;-43
2022/01/31 00:45:07;;;;;;;;;;;20.40;42.20;;;;;;5106932;27;19920;-42
2022/01/31 00:47:40;;;;;;;;;;;20.40;42.10;;;;;;5069329;27;19931;-43
2022/01/31 00:50:10;;;;;;;;;;;20.40;42.10;;;;;;5106667;27;19935;-42
2022/01/31 00:52:38;;;;;;;;;;;20.40;42.10;;;;;;5103276;27;19919;-47
2022/01/31 00:55:05;;;;;;;;;;;20.40;42.10;;;;;;5123234;27;19924;-43
2022/01/31 00:57:32;;;;;;;;;;;20.40;42.10;;;;;;5103007;27;20344;-42
2022/01/31 00:59:59;;;;;;;;;;;20.40;42.10;;;;;;5107815;27;19980;-43
2022/01/31 01:02:26;;;;;;;;;;;20.40;42.60;;;;;;5105761;27;19947;-43
2022/01/31 01:04:53;;;;;;;;;;;20.40;42.00;;;;;;5108949;27;19920;-45
2022/01/31 01:07:21;;;;;;;;;;;20.40;42.00;;;;;;5107177;27;19927;-46
2022/01/31 01:09:48;;;;;;;;;;;20.40;42.00;;;;;;5109473;27;19924;-42
2022/01/31 01:12:15;;;;;;;;;;;20.40;41.90;;;;;;5107158;27;19934;-43
2022/01/31 01:14:42;;;;;;;;;;;20.40;41.90;;;;;;5104093;27;19967;-43
2022/01/31 01:17:09;;;;;;;;;;;20.40;41.90;;;;;;5108777;27;19919;-45
2022/01/31 01:19:36;;;;;;;;;;;20.40;41.90;;;;;;5120957;27;20171;-47
2022/01/31 01:22:04;;;;;;;;;;;20.40;41.90;;;;;;5110405;27;19919;-46
2022/01/31 01:24:32;;;;;;;;;;;20.40;41.90;;;;;;5107718;27;19927;-43
2022/01/31 01:26:59;;;;;;;;;;;20.40;41.90;;;;;;5109152;27;19941;-42
2022/01/31 01:29:25;;;;;;;;;;;20.40;41.90;;;;;;5106300;27;19920;-44
2022/01/31 01:31:52;;;;;;;;;;;20.30;41.80;;;;;;5106862;27;19919;-43
2022/01/31 01:34:20;;;;;;;;;;;20.40;41.90;;;;;;5107602;27;19923;-46
2022/01/31 01:36:50;;;;;;;;;;;20.30;41.70;;;;;;5107120;27;20172;-42
2022/01/31 01:39:17;;;;;;;;;;;20.30;41.70;;;;;;5122362;27;19974;-45
2022/01/31 01:41:45;;;;;;;;;;;20.40;41.80;;;;;;5103975;27;19926;-44
2022/01/31 01:44:12;;;;;;;;;;;20.30;41.70;;;;;;5124340;27;19919;-43
2022/01/31 01:46:39;;;;;;;;;;;20.40;41.80;;;;;;5106435;27;19926;-42
2022/01/31 01:49:05;;;;;;;;;;;20.30;41.70;;;;;;5105899;27;19957;-46
2022/01/31 01:51:32;;;;;;;;;;;20.30;41.70;;;;;;5105645;28;20014;-42
2022/01/31 01:53:59;;;;;;;;;;;20.30;41.70;;;;;;5105881;27;19920;-42
2022/01/31 01:56:27;;;;;;;;;;;20.30;41.70;;;;;;5103405;28;19920;-42
2022/01/31 01:58:56;;;;;;;;;;;20.30;41.70;;;;;;5108973;27;19931;-45
2022/01/31 02:01:23;;;;;;;;;;;20.40;41.70;;;;;;5127914;27;20439;-42
2022/01/31 02:03:50;;;;;;;;;;;20.40;41.70;;;;;;5123955;28;20046;-43
2022/01/31 02:06:17;;;;;;;;;;;20.30;41.60;;;;;;5107539;28;20380;-42
2022/01/31 02:08:44;;;;;;;;;;;20.40;41.70;;;;;;5103371;28;19976;-46
2022/01/31 02:11:12;;;;;;;;;;;20.30;41.60;;;;;;5101191;28;20123;-45
2022/01/31 02:13:38;;;;;;;;;;;20.30;41.60;;;;;;5120199;28;19934;-44
2022/01/31 02:16:07;;;;;;;;;;;20.40;41.60;;;;;;5122263;28;19923;-47
2022/01/31 02:18:35;;;;;;;;;;;20.30;41.50;;;;;;5123253;28;19933;-44
2022/01/31 02:21:04;;;;;;;;;;;20.30;41.50;;;;;;5107133;28;19931;-47
2022/01/31 02:23:31;;;;;;;;;;;20.30;41.50;;;;;;5103317;28;19919;-44
2022/01/31 02:25:58;;;;;;;;;;;20.30;41.50;;;;;;5124039;27;20284;-43
2022/01/31 02:28:25;;;;;;;;;;;20.30;41.50;;;;;;5126309;27;19964;-46
2022/01/31 02:30:52;;;;;;;;;;;20.30;41.50;;;;;;5108364;27;19924;-44
2022/01/31 02:33:19;;;;;;;;;;;20.30;41.40;;;;;;5108272;27;20261;-47
2022/01/31 02:35:46;;;;;;;;;;;20.30;41.50;;;;;;5107908;28;20030;-46
2022/01/31 02:38:15;;;;;;;;;;;20.40;41.50;;;;;;5115719;27;19919;-42
2022/01/31 02:40:42;;;;;;;;;;;20.30;41.40;;;;;;5109851;27;19927;-43
2022/01/31 02:43:09;;;;;;;;;;;20.30;41.40;;;;;;5107840;27;19920;-46
2022/01/31 02:45:36;;;;;;;;;;;20.30;41.40;;;;;;5107597;27;19920;-47
2022/01/31 02:48:04;;;;;;;;;;;20.30;41.40;;;;;;5125093;27;19942;-46
2022/01/31 02:50:31;;;;;;;;;;;20.30;41.30;;;;;;5108880;27;19919;-45
2022/01/31 02:53:10;;;;;;;;;;;20.30;41.30;;;;;;5107305;27;19964;-45
2022/01/31 02:55:40;;;;;;;;;;;20.30;41.30;;;;;;5106676;27;20322;-45
2022/01/31 02:58:06;;;;;;;;;;;20.30;41.30;;;;;;5108602;27;19931;-43
2022/01/31 03:00:34;;;;;;;;;;;20.30;41.20;;;;;;5125910;27;19926;-42
2022/01/31 03:03:00;;;;;;;;;;;20.30;41.30;;;;;;5108562;27;19924;-47
2022/01/31 03:05:27;;;;;;;;;;;20.30;41.20;;;;;;5103278;28;19928;-41
2022/01/31 03:07:54;;;;;;;;;;;20.30;41.20;;;;;;5109178;27;20322;-43
2022/01/31 03:10:21;;;;;;;;;;;20.30;41.20;;;;;;5109187;27;19969;-45
2022/01/31 03:12:49;;;;;;;;;;;20.30;41.20;;;;;;5109342;27;19966;-47
2022/01/31 03:15:16;;;;;;;;;;;20.30;41.20;;;;;;5123928;27;19919;-42
2022/01/31 03:17:46;;;;;;;;;;;20.30;41.20;;;;;;5106231;27;19920;-46
2022/01/31 03:20:14;;;;;;;;;;;20.30;41.20;;;;;;5107619;27;19927;-42
2022/01/31 03:22:41;;;;;;;;;;;20.30;41.20;;;;;;5127051;27;19973;-48
2022/01/31 03:25:08;;;;;;;;;;;20.30;41.20;;;;;;5106560;27;19919;-48
2022/01/31 03:27:35;;;;;;;;;;;20.30;41.20;;;;;;5103688;27;19970;-44
2022/01/31 03:30:03;;;;;;;;;;;20.30;41.20;;;;;;5108341;27;19923;-43
2022/01/31 03:32:30;;;;;;;;;;;20.30;41.20;;;;;;5108817;27;19926;-44
2022/01/31 03:34:57;;;;;;;;;;;20.30;41.20;;;;;;5102767;27;19926;-47
2022/01/31 03:37:24;;;;;;;;;;;20.30;41.20;;;;;;5114617;28;19923;-44
2022/01/31 03:39:50;;;;;;;;;;;20.30;41.10;;;;;;5105047;27;19941;-44
2022/01/31 03:42:18;;;;;;;;;;;20.30;41.20;;;;;;5125510;27;19965;-41
2022/01/31 03:44:46;;;;;;;;;;;20.30;41.10;;;;;;5124629;27;19924;-41
2022/01/31 03:47:14;;;;;;;;;;;20.30;41.10;;;;;;5102736;27;19970;-45
2022/01/31 03:49:41;;;;;;;;;;;20.30;41.10;;;;;;5108706;27;19919;-43
2022/01/31 03:52:07;;;;;;;;;;;20.30;41.10;;;;;;5115118;27;19923;-44
2022/01/31 03:54:34;;;;;;;;;;;20.30;41.10;;;;;;5106896;27;19961;-45
2022/01/31 03:57:01;;;;;;;;;;;20.30;41.10;;;;;;5125282;27;19919;-44
2022/01/31 03:59:28;;;;;;;;;;;20.30;41.10;;;;;;5126429;27;19924;-43
2022/01/31 04:01:54;;;;;;;;;;;20.30;41.00;;;;;;5125392;27;20254;-42
2022/01/31 04:04:23;;;;;;;;;;;20.30;41.60;;;;;;5106990;28;19930;-41
2022/01/31 04:06:49;;;;;;;;;;;20.30;41.00;;;;;;5125403;27;19931;-44
2022/01/31 04:09:16;;;;;;;;;;;20.30;41.00;;;;;;5109685;27;19930;-42
2022/01/31 04:11:45;;;;;;;;;;;20.30;41.00;;;;;;5108306;27;19920;-44
2022/01/31 04:14:11;;;;;;;;;;;20.30;41.00;;;;;;5108316;27;19920;-44
2022/01/31 04:16:38;;;;;;;;;;;20.30;41.00;;;;;;5106171;27;19919;-45
2022/01/31 04:19:05;;;;;;;;;;;20.30;40.90;;;;;;5126337;27;19965;-43
2022/01/31 04:21:33;;;;;;;;;;;20.30;40.90;;;;;;5109507;27;20303;-42
2022/01/31 04:24:00;;;;;;;;;;;20.30;41.00;;;;;;5107253;27;19967;-42
2022/01/31 04:26:32;;;;;;;;;;;20.30;40.90;;;;;;5108807;27;19966;-42
2022/01/31 04:29:04;;;;;;;;;;;20.30;40.90;;;;;;5105823;27;19920;-46
2022/01/31 04:31:38;;;;;;;;;;;20.30;40.90;;;;;;5106900;27;19919;-47
2022/01/31 04:34:05;;;;;;;;;;;20.30;40.90;;;;;;5123324;27;19926;-45
2022/01/31 04:36:34;;;;;;;;;;;20.30;40.80;;;;;;5104891;27;20099;-43
2022/01/31 04:39:01;;;;;;;;;;;20.30;40.90;;;;;;5102681;27;20035;-42
2022/01/31 04:41:28;;;;;;;;;;;20.30;40.80;;;;;;5107397;27;19926;-43
2022/01/31 04:43:59;;;;;;;;;;;20.30;40.80;;;;;;5106763;27;19928;-43
2022/01/31 04:46:26;;;;;;;;;;;20.30;40.80;;;;;;5102675;28;20071;-43
2022/01/31 04:48:52;;;;;;;;;;;20.30;40.80;;;;;;5104837;27;19924;-43
2022/01/31 04:51:19;;;;;;;;;;;20.20;40.70;;;;;;5099636;28;20288;-44
2022/01/31 04:53:47;;;;;;;;;;;20.20;40.70;;;;;;5105238;28;19954;-43
2022/01/31 04:56:14;;;;;;;;;;;20.30;40.80;;;;;;5126226;27;19927;-48
2022/01/31 04:58:41;;;;;;;;;;;20.30;40.70;;;;;;5104566;27;19927;-43
2022/01/31 05:01:08;;;;;;;;;;;20.30;40.70;;;;;;5104867;27;19924;-47
2022/01/31 05:03:35;;;;;;;;;;;20.20;40.70;;;;;;5124965;27;19950;-44
2022/01/31 05:06:02;;;;;;;;;;;20.20;40.70;;;;;;5108278;27;19937;-43
2022/01/31 05:08:29;;;;;;;;;;;20.30;40.70;;;;;;5107375;27;19923;-41
2022/01/31 05:10:58;;;;;;;;;;;20.20;40.70;;;;;;5106618;27;19926;-44
2022/01/31 05:13:25;;;;;;;;;;;20.20;40.60;;;;;;5127157;27;20064;-42
2022/01/31 05:15:55;;;;;;;;;;;20.20;40.60;;;;;;5108044;27;19924;-45
2022/01/31 05:18:22;;;;;;;;;;;20.20;40.60;;;;;;5102240;27;19919;-42
2022/01/31 05:20:49;;;;;;;;;;;20.20;40.60;;;;;;5109401;27;19952;-42
2022/01/31 05:23:15;;;;;;;;;;;20.20;40.60;;;;;;5126750;27;19920;-42
2022/01/31 05:25:42;;;;;;;;;;;20.20;40.60;;;;;;5104158;27;19931;-44
2022/01/31 05:28:11;;;;;;;;;;;20.20;40.60;;;;;;5107686;27;19923;-43
2022/01/31 05:30:38;;;;;;;;;;;20.20;40.60;;;;;;5125972;27;20187;-43
2022/01/31 05:33:05;;;;;;;;;;;20.30;40.60;;;;;;5107868;27;19920;-42
2022/01/31 05:35:31;;;;;;;;;;;20.20;40.60;;;;;;5109439;27;19974;-45
2022/01/31 05:37:58;;;;;;;;;;;20.30;40.60;;;;;;5109527;28;19931;-42
2022/01/31 05:40:25;;;;;;;;;;;20.30;40.60;;;;;;5105580;27;19993;-47
2022/01/31 05:42:52;;;;;;;;;;;20.30;40.60;;;;;;5106021;27;20384;-44
2022/01/31 05:45:20;;;;;;;;;;;20.30;40.60;;;;;;5107923;27;19938;-43
2022/01/31 05:47:47;;;;;;;;;;;20.30;40.60;;;;;;5103743;27;19961;-44
2022/01/31 05:50:14;;;;;;;;;;;20.20;40.50;;;;;;5105162;27;19924;-42
2022/01/31 05:52:40;;;;;;;;;;;20.20;40.50;;;;;;5103534;28;19942;-43
2022/01/31 05:55:08;;;;;;;;;;;20.20;41.10;;;;;;5104681;27;19919;-41
2022/01/31 05:57:34;;;;;;;;;;;20.30;40.60;;;;;;5114166;27;19951;-43
2022/01/31 06:00:01;;;;;;;;;;;20.20;40.40;;;;;;5106175;27;19935;-42
2022/01/31 06:02:29;;;;;;;;;;;20.20;40.40;;;;;;5103723;28;19919;-42
2022/01/31 06:04:56;;;;;;;;;;;20.20;40.40;;;;;;5124423;27;20123;-44
2022/01/31 06:07:23;;;;;;;;;;;20.20;40.40;;;;;;5105714;28;19969;-45
2022/01/31 06:09:50;;;;;;;;;;;20.20;40.40;;;;;;5126821;28;19928;-43
2022/01/31 06:12:17;;;;;;;;;;;20.20;40.40;;;;;;5120564;28;19924;-42
2022/01/31 06:14:44;;;;;;;;;;;20.20;40.40;;;;;;5128633;28;19926;-42
2022/01/31 06:17:10;;;;;;;;;;;20.20;40.40;;;;;;5107632;28;19997;-42
2022/01/31 06:19:38;;;;;;;;;;;20.20;40.30;;;;;;5107264;28;20357;-45
2022/01/31 06:22:06;;;;;;;;;;;20.20;40.40;;;;;;5103803;28;19944;-43
2022/01/31 06:24:32;;;;;;;;;;;20.20;40.40;;;;;;5105184;28;19924;-47
2022/01/31 06:26:59;;;;;;;;;;;20.20;40.30;;;;;;5126610;28;19923;-46
2022/01/31 06:29:27;;;;;;;;;;;20.20;40.30;;;;;;5106208;28;19933;-41
2022/01/31 06:31:53;;;;;;;;;;;20.20;40.30;;;;;;5098979;28;19930;-46
2022/01/31 06:34:20;;;;;;;;;;;20.20;40.30;;;;;;5113302;28;19985;-43
2022/01/31 06:36:48;;;;;;;;;;;20.20;40.30;;;;;;5093885;28;19928;-41
2022/01/31 06:39:15;;;;;;;;;;;20.20;40.30;;;;;;5097572;28;20029;-42
2022/01/31 06:41:42;;;;;;;;;;;20.20;40.30;;;;;;5094390;28;19927;-42
2022/01/31 06:44:09;;;;;;;;;;;20.20;40.30;;;;;;5095604;28;20344;-43
2022/01/31 06:46:35;;;;;;;;;;;20.20;40.30;;;;;;5109313;28;19924;-46
2022/01/31 06:49:03;;;;;;;;;;;20.20;40.30;;;;;;5103255;28;19920;-45
2022/01/31 06:51:30;;;;;;;;;;;20.20;40.30;;;;;;5097742;28;19998;-46
2022/01/31 06:54:00;;;;;;;;;;;20.20;40.30;;;;;;5103171;28;19935;-46
2022/01/31 06:56:30;;;;;;;;;;;20.20;40.30;;;;;;5105302;28;19924;-42
2022/01/31 06:58:57;;;;;;;;;;;20.20;40.30;;;;;;5104974;28;19949;-45
2022/01/31 07:01:25;;;;;;;;;;;20.20;40.30;;;;;;5125393;28;20042;-43
2022/01/31 07:03:53;;;;;;;;;;;20.20;40.30;;;;;;5104460;28;19990;-51
2022/01/31 07:06:20;;;;;;;;;;;20.20;40.30;;;;;;5106398;28;19977;-45
2022/01/31 07:08:47;;;;;;;;;;;20.20;40.30;;;;;;5119739;28;19968;-46
2022/01/31 07:11:20;;;;;;;;;;;20.20;40.30;;;;;;5104292;28;19966;-47
2022/01/31 07:13:49;;;;;;;;;;;20.20;40.30;;;;;;5114538;27;19958;-46
2022/01/31 07:16:16;;;;;;;;;;;20.20;40.30;;;;;;5125628;27;19919;-42
2022/01/31 07:18:44;;;;;;;;;;;20.20;40.30;;;;;;5105128;27;19928;-46
2022/01/31 07:21:13;;;;;;;;;;;20.20;40.30;;;;;;5126701;27;19919;-46
2022/01/31 07:24:02;;;;;;;;;;;20.20;40.30;;;;;;5115172;27;19920;-45
2022/01/31 07:26:31;;;;;;;;;;;20.20;40.30;;;;;;5106067;27;19988;-45
2022/01/31 07:28:58;;;;;;;;;;;20.20;40.30;;;;;;5107681;27;19920;-42
2022/01/31 07:31:25;;;;;;;;;;;20.20;40.20;;;;;;5109792;27;20689;-44
2022/01/31 07:33:52;;;;;;;;;;;20.20;40.30;;;;;;5109154;27;19958;-44
2022/01/31 07:36:19;;;;;;;;;;;20.20;40.30;;;;;;5110975;27;19975;-46
2022/01/31 07:38:45;;;;;;;;;;;20.20;40.30;;;;;;5102464;27;19976;-44
2022/01/31 07:41:14;;;;;;;;;;;20.20;40.30;;;;;;5104134;27;19920;-43
2022/01/31 07:43:44;;;;;;;;;;;20.20;40.30;;;;;;5105096;28;19920;-41
2022/01/31 07:46:11;;;;;;;;;;;20.20;40.30;;;;;;5101861;27;20379;-44
2022/01/31 07:48:38;;;;;;;;;;;20.20;40.30;;;;;;5111205;27;19938;-45
2022/01/31 07:51:05;;;;;;;;;;;20.20;40.30;;;;;;5102967;27;19958;-45
2022/01/31 07:53:31;;;;;;;;;;;20.20;40.30;;;;;;5102700;27;19942;-46
2022/01/31 07:56:00;;;;;;;;;;;20.20;40.30;;;;;;5109101;27;19931;-43
2022/01/31 07:58:27;;;;;;;;;;;20.20;40.20;;;;;;5104335;27;19927;-46
2022/01/31 08:00:56;;;;;;;;;;;20.20;40.30;;;;;;5099608;27;19919;-45
2022/01/31 08:03:23;;;;;;;;;;;20.20;40.30;;;;;;5084664;28;19920;-44
2022/01/31 08:05:50;;;;;;;;;;;20.20;40.30;;;;;;5116346;27;20352;-43
2022/01/31 08:08:17;;;;;;;;;;;20.20;40.30;;;;;;5105507;28;19919;-45
2022/01/31 08:10:44;;;;;;;;;;;20.20;40.30;;;;;;5107417;27;19968;-43
2022/01/31 08:13:10;;;;;;;;;;;20.20;40.30;;;;;;5104699;27;19923;-44
2022/01/31 08:15:46;;;;;;;;;;;20.20;40.30;;;;;;5101945;27;19990;-44
2022/01/31 08:18:15;;;;;;;;;;;20.20;40.30;;;;;;5095151;27;19997;-46
2022/01/31 08:20:41;;;;;;;;;;;20.20;40.30;;;;;;5092336;27;19959;-43
2022/01/31 08:23:10;;;;;;;;;;;20.20;40.30;;;;;;5097901;27;20334;-45
2022/01/31 08:25:37;;;;;;;;;;;20.30;40.40;;;;;;5093331;27;19919;-43
2022/01/31 08:28:09;;;;;;;;;;;20.20;40.40;;;;;;5104171;27;19920;-42
2022/01/31 08:30:43;;;;;;;;;;;20.20;40.40;;;;;;5097912;27;20048;-41
2022/01/31 08:33:25;;;;;;;;;;;20.20;40.40;;;;;;5121216;27;19924;-46
2022/01/31 08:35:53;;;;;;;;;;;20.30;40.50;;;;;;5100361;27;19953;-43
2022/01/31 08:38:19;;;;;;;;;;;20.30;40.80;;;;;;5102343;27;19965;-46
2022/01/31 08:40:46;;;;;;;;;;;20.30;40.60;;;;;;5098984;27;19926;-45
2022/01/31 08:43:16;;;;;;;;;;;20.30;40.60;;;;;;5103403;27;20234;-43
2022/01/31 08:45:42;;;;;;;;;;;20.30;40.60;;;;;;5119123;27;19920;-44
2022/01/31 08:48:09;;;;;;;;;;;20.30;40.60;;;;;;5100403;27;19924;-43
2022/01/31 08:50:36;;;;;;;;;;;20.30;40.60;;;;;;5101767;27;20264;-41
2022/01/31 08:53:05;;;;;;;;;;;20.30;40.60;;;;;;5099307;28;19930;-48
2022/01/31 08:55:32;;;;;;;;;;;20.30;40.60;;;;;;5096704;27;20330;-43
2022/01/31 08:57:58;;;;;;;;;;;20.30;40.70;;;;;;5114082;27;20031;-46
2022/01/31 09:00:33;;;;;;;;;;;20.30;40.70;;;;;;5117446;27;19946;-46
2022/01/31 09:03:06;;;;;;;;;;;20.30;40.70;;;;;;5098738;28;19928;-44
2022/01/31 09:05:33;;;;;;;;;;;20.30;40.70;;;;;;5101400;27;20329;-42
2022/01/31 09:07:59;;;;;;;;;;;20.40;40.80;;;;;;5101228;27;19947;-46
2022/01/31 09:10:28;;;;;;;;;;;20.40;40.80;;;;;;5087156;27;19919;-42
2022/01/31 09:12:55;;;;;;;;;;;20.40;40.90;;;;;;5101560;28;19919;-43
2022/01/31 09:15:22;;;;;;;;;;;20.40;40.90;;;;;;5099784;27;20344;-43
2022/01/31 09:17:49;;;;;;;;;;;20.40;40.90;;;;;;5098438;27;20356;-45
2022/01/31 09:20:16;;;;;;;;;;;20.40;40.90;;;;;;5098332;27;19976;-43
2022/01/31 09:22:43;;;;;;;;;;;20.40;41.00;;;;;;5098604;27;19955;-45
2022/01/31 09:25:10;;;;;;;;;;;20.40;40.90;;;;;;5116970;27;19919;-42
2022/01/31 09:27:38;;;;;;;;;;;20.40;41.00;;;;;;5096815;27;20013;-45
2022/01/31 09:30:05;;;;;;;;;;;20.40;41.00;;;;;;5099186;27;19919;-50
2022/01/31 09:32:32;;;;;;;;;;;20.40;41.00;;;;;;5099771;28;19924;-44
2022/01/31 09:34:59;;;;;;;;;;;20.40;41.00;;;;;;5098242;28;19959;-43
2022/01/31 09:37:26;;;;;;;;;;;20.40;41.00;;;;;;5097399;28;19924;-42
2022/01/31 09:39:53;;;;;;;;;;;20.40;41.00;;;;;;5119335;27;20275;-42
2022/01/31 09:42:28;;;;;;;;;;;20.40;41.00;;;;;;5103048;28;20464;-42
2022/01/31 09:45:10;;;;;;;;;;;20.40;41.00;;;;;;5117967;27;19928;-42
2022/01/31 09:50:21;;;;;;;;;;;20.40;41.00;;;;;;5121217;27;19950;-47
2022/01/31 09:52:48;;;;;;;;;;;20.40;41.10;;;;;;5101939;27;19923;-44
2022/01/31 09:55:16;;;;;;;;;;;20.50;41.10;;;;;;5109216;27;20117;-46
2022/01/31 09:57:43;;;;;;;;;;;20.50;41.10;;;;;;5102188;28;19931;-43
2022/01/31 10:00:11;;;;;;;;;;;20.50;41.10;;;;;;5099164;28;19948;-45
2022/01/31 10:02:38;;;;;;;;;;;20.50;41.10;;;;;;5101306;28;19999;-44
2022/01/31 10:05:05;;;;;;;;;;;20.50;41.10;;;;;;5098207;28;19941;-46
2022/01/31 10:07:50;;;;;;;;;;;20.50;41.20;;;;;;5101279;28;19945;-42
2022/01/31 10:10:17;;;;;;;;;;;20.50;41.20;;;;;;5115394;28;20298;-44
2022/01/31 10:18:15;;;;;;;;;;;20.50;41.20;;;;;;5097976;28;19920;-45
2022/01/31 10:20:42;;;;;;;;;;;20.50;41.30;;;;;;5096583;28;20102;-48
2022/01/31 10:23:09;;;;;;;;;;;20.50;41.30;;;;;;5095559;28;19951;-47
2022/01/31 10:25:35;;;;;;;;;;;20.50;41.30;;;;;;5093695;28;19962;-47
2022/01/31 10:28:02;;;;;;;;;;;20.50;41.90;;;;;;5118300;28;20167;-43
2022/01/31 10:30:30;;;;;;;;;;;20.50;41.30;;;;;;5099307;28;19946;-44
2022/01/31 10:32:58;;;;;;;;;;;20.50;41.30;;;;;;5094755;28;20328;-43
2022/01/31 10:35:25;;;;;;;;;;;20.60;41.40;;;;;;5094880;28;20207;-47
2022/01/31 10:37:55;;;;;;;;;;;20.50;41.40;;;;;;5116423;28;20096;-42
2022/01/31 10:43:38;;;;;;;;;;;20.50;41.40;;;;;;5094400;28;20211;-43
2022/01/31 10:46:10;;;;;;;;;;;20.60;41.50;;;;;;5096755;28;19919;-45
2022/01/31 10:54:13;;;;;;;;;;;20.60;41.50;;;;;;5097693;27;19957;-43
2022/01/31 10:56:41;;;;;;;;;;;20.60;41.50;;;;;;5118115;27;19924;-44
2022/01/31 10:59:08;;;;;;;;;;;20.60;41.50;;;;;;5096771;27;20023;-44
2022/01/31 11:01:38;;;;;;;;;;;20.60;41.60;;;;;;5101123;27;19982;-41
2022/01/31 11:04:06;;;;;;;;;;;20.60;41.50;;;;;;5100927;27;20208;-43
2022/01/31 11:06:33;;;;;;;;;;;20.60;41.60;;;;;;5097877;27;19936;-42
2022/01/31 11:09:04;;;;;;;;;;;20.60;41.60;;;;;;5121864;27;19935;-45
2022/01/31 11:11:31;;;;;;;;;;;20.60;41.60;;;;;;5098634;27;20106;-43
2022/01/31 11:13:59;;;;;;;;;;;20.60;41.60;;;;;;5102608;27;19927;-43
2022/01/31 11:16:26;;;;;;;;;;;20.60;41.60;;;;;;5120253;27;20291;-45
2022/01/31 11:18:54;;;;;;;;;;;20.60;41.60;;;;;;5103701;27;20388;-45
2022/01/31 11:21:27;;;;;;;;;;;20.60;41.60;;;;;;5103001;27;19958;-45
2022/01/31 11:23:54;;;;;;;;;;;20.60;41.60;;;;;;5103420;27;19927;-44
2022/01/31 11:26:21;;;;;;;;;;;20.70;41.70;;;;;;5105286;27;20353;-48
2022/01/31 11:28:47;;;;;;;;;;;20.60;41.60;;;;;;5120519;27;19978;-45
2022/01/31 11:31:14;;;;;;;;;;;20.60;41.70;;;;;;5103122;27;19974;-45
2022/01/31 11:33:41;;;;;;;;;;;20.60;41.70;;;;;;5119542;27;19919;-47
2022/01/31 11:36:09;;;;;;;;;;;20.60;41.70;;;;;;5102410;27;20006;-44
2022/01/31 11:38:36;;;;;;;;;;;20.60;41.70;;;;;;5098390;27;20015;-46
2022/01/31 11:41:03;;;;;;;;;;;20.60;41.80;;;;;;5118315;27;20011;-46
2022/01/31 11:43:30;;;;;;;;;;;20.60;41.70;;;;;;5095878;27;19924;-48
2022/01/31 11:45:59;;;;;;;;;;;20.60;41.80;;;;;;5095250;27;20074;-42
2022/01/31 11:48:26;;;;;;;;;;;20.70;41.80;;;;;;5092552;28;19920;-46
2022/01/31 11:50:54;;;;;;;;;;;20.60;41.70;;;;;;5101958;27;20365;-49
2022/01/31 11:53:29;;;;;;;;;;;20.70;41.60;;;;;;5095918;28;19924;-49
2022/01/31 11:56:00;;;;;;;;;;;20.70;41.30;;;;;;5093508;28;19955;-50
2022/01/31 11:58:27;;;;;;;;;;;20.70;41.00;;;;;;5093838;28;19936;-47
2022/01/31 12:00:54;;;;;;;;;;;20.70;40.70;;;;;;5098027;28;19919;-47
2022/01/31 12:03:21;;;;;;;;;;;20.60;40.30;;;;;;5107252;27;20121;-48
2022/01/31 12:05:49;;;;;;;;;;;20.60;40.10;;;;;;5100196;28;19930;-50
2022/01/31 12:08:17;;;;;;;;;;;20.60;39.90;;;;;;5099727;27;19934;-49
2022/01/31 12:10:47;;;;;;;;;;;20.60;40.30;;;;;;5115217;27;20200;-55
2022/01/31 12:13:38;;;;;;;;;;;20.50;39.40;;;;;;5095146;27;19943;-48
2022/01/31 12:16:15;;;;;;;;;;;20.60;39.30;;;;;;5097683;28;19926;-49
2022/01/31 12:24:27;;;;;;;;;;;20.40;38.70;;;;;;5099472;27;19931;-55
2022/01/31 12:26:56;;;;;;;;;;;20.40;38.50;;;;;;5117462;27;20009;-47
2022/01/31 12:29:23;;;;;;;;;;;20.40;38.50;;;;;;5100068;28;19923;-48
2022/01/31 12:31:50;;;;;;;;;;;20.40;38.40;;;;;;5099183;27;19962;-51
2022/01/31 12:34:33;;;;;;;;;;;20.40;38.40;;;;;;5098519;27;19919;-53
2022/01/31 12:37:00;;;;;;;;;;;20.40;38.30;;;;;;5097503;28;19920;-53
2022/01/31 12:39:45;;;;;;;;;;;20.40;38.10;;;;;;5096169;27;20002;-51
2022/01/31 12:42:45;;;;;;;;;;;20.30;38.00;;;;;;5098833;28;19926;-49
2022/01/31 12:45:12;;;;;;;;;;;20.30;38.00;;;;;;5115565;27;20254;-54
2022/01/31 12:47:39;;;;;;;;;;;20.30;38.00;;;;;;5095999;27;20140;-44
2022/01/31 12:50:18;;;;;;;;;;;20.30;37.90;;;;;;5096510;27;19920;-43
2022/01/31 12:52:45;;;;;;;;;;;20.30;38.50;;;;;;5111104;27;20118;-43
2022/01/31 12:55:12;;;;;;;;;;;20.30;38.80;;;;;;5101425;27;19939;-44
2022/01/31 12:57:48;;;;;;;;;;;20.30;39.00;;;;;;5099290;27;20034;-49
2022/01/31 13:00:15;;;;;;;;;;;20.30;39.20;;;;;;5103981;27;19939;-46
2022/01/31 13:02:47;;;;;;;;;;;20.30;41.50;;;;;;5102378;27;20444;-43
2022/01/31 13:05:14;;;;;;;;;;;20.30;39.40;;;;;;5101331;27;19924;-43
2022/01/31 13:07:41;;;;;;;;;;;20.30;39.50;;;;;;5097263;27;19920;-45
2022/01/31 13:10:09;;;;;;;;;;;20.40;39.70;;;;;;5099904;27;20364;-45
2022/01/31 13:12:36;;;;;;;;;;;20.40;39.80;;;;;;5120482;27;20336;-44
2022/01/31 13:15:05;;;;;;;;;;;20.40;39.90;;;;;;5097574;27;20034;-44
2022/01/31 13:17:32;;;;;;;;;;;20.40;39.90;;;;;;5098277;27;19924;-42
2022/01/31 13:19:59;;;;;;;;;;;20.40;40.00;;;;;;5103999;27;19919;-46
2022/01/31 13:22:29;;;;;;;;;;;20.40;40.00;;;;;;5099299;27;20335;-43
2022/01/31 13:24:57;;;;;;;;;;;20.50;40.20;;;;;;5101625;28;20339;-43
2022/01/31 13:27:29;;;;;;;;;;;20.40;40.10;;;;;;5111223;27;19926;-42
2022/01/31 13:29:56;;;;;;;;;;;20.40;40.20;;;;;;5096779;27;19927;-44
2022/01/31 13:32:25;;;;;;;;;;;20.40;40.30;;;;;;5095713;27;20325;-42
2022/01/31 13:34:53;;;;;;;;;;;20.50;40.40;;;;;;5097172;27;20388;-44
2022/01/31 13:37:33;;;;;;;;;;;20.40;40.40;;;;;;5103199;27;20372;-46
2022/01/31 13:40:02;;;;;;;;;;;20.40;40.40;;;;;;5096971;28;20077;-47
2022/01/31 13:42:33;;;;;;;;;;;20.40;40.50;;;;;;5101728;27;20268;-45
2022/01/31 13:45:02;;;;;;;;;;;20.50;40.50;;;;;;5100805;27;19919;-44
2022/01/31 13:47:37;;;;;;;;;;;20.50;40.60;;;;;;5102851;27;19931;-43
2022/01/31 13:50:14;;;;;;;;;;;20.50;40.60;;;;;;5097809;28;19987;-44
2022/01/31 13:52:49;;;;;;;;;;;20.50;40.60;;;;;;5098830;27;19931;-43
2022/01/31 13:55:16;;;;;;;;;;;20.50;40.70;;;;;;5099902;28;19959;-42
2022/01/31 13:57:43;;;;;;;;;;;20.50;40.70;;;;;;5087395;28;19927;-45
2022/01/31 14:00:10;;;;;;;;;;;20.50;40.80;;;;;;5088689;28;19930;-43
2022/01/31 14:02:40;;;;;;;;;;;20.50;40.80;;;;;;5111435;27;19939;-45
2022/01/31 14:05:18;;;;;;;;;;;20.50;40.80;;;;;;5106235;27;19923;-46
2022/01/31 14:07:45;;;;;;;;;;;20.50;40.80;;;;;;5091805;28;19919;-47
2022/01/31 14:10:23;;;;;;;;;;;20.60;41.00;;;;;;5090303;28;20237;-41
2022/01/31 14:12:55;;;;;;;;;;;20.60;41.00;;;;;;5088573;28;19943;-43
2022/01/31 14:15:22;;;;;;;;;;;20.50;40.90;;;;;;5104043;28;19927;-49
2022/01/31 14:17:51;;;;;;;;;;;20.50;40.90;;;;;;5094688;28;20408;-42
2022/01/31 14:20:19;;;;;;;;;;;20.50;40.90;;;;;;5109735;28;19923;-45
2022/01/31 14:22:46;;;;;;;;;;;20.50;40.90;;;;;;5095212;28;19930;-42
2022/01/31 14:25:13;;;;;;;;;;;20.50;41.00;;;;;;5093847;28;19993;-48
2022/01/31 14:27:49;;;;;;;;;;;20.50;41.00;;;;;;5102840;28;19919;-44
2022/01/31 14:30:17;;;;;;;;;;;20.50;41.00;;;;;;5094310;28;19927;-44
2022/01/31 14:32:44;;;;;;;;;;;20.50;41.10;;;;;;5093174;28;19928;-46
2022/01/31 14:35:12;;;;;;;;;;;20.50;41.10;;;;;;5093816;28;19924;-47
2022/01/31 14:37:48;;;;;;;;;;;20.50;41.10;;;;;;5114837;27;19950;-42
2022/01/31 14:40:26;;;;;;;;;;;20.60;41.20;;;;;;5095655;28;19920;-47
2022/01/31 14:43:09;;;;;;;;;;;20.60;41.30;;;;;;5091718;28;19920;-42
2022/01/31 14:48:20;;;;;;;;;;;20.60;41.30;;;;;;5098026;27;19935;-43